createdAt,value
2018-03-01T00:00:34.122Z,1005.42
2018-03-01T00:01:34.128Z,1005.42
2018-03-01T00:02:34.078Z,1005.47
2018-03-01T00:03:34.039Z,1005.50
2018-03-01T00:04:34.575Z,1005.46
2018-03-01T00:05:34.032Z,1005.49
2018-03-01T00:06:33.993Z,1005.47
2018-03-01T00:07:33.950Z,1005.42
2018-03-01T00:08:33.923Z,1005.46
2018-03-01T00:09:33.920Z,1005.43
2018-03-01T00:10:33.860Z,1005.38
2018-03-01T00:11:33.844Z,1005.44
2018-03-01T00:12:33.820Z,1005.42
2018-03-01T00:13:33.854Z,1005.35
2018-03-01T00:14:33.782Z,1005.40
2018-03-01T00:15:33.764Z,1005.41
2018-03-01T00:16:33.762Z,1005.35
2018-03-01T00:17:33.701Z,1005.35
2018-03-01T00:18:33.682Z,1005.37
2018-03-01T00:19:33.658Z,1005.34
2018-03-01T00:20:33.641Z,1005.40
2018-03-01T00:21:33.608Z,1005.33
2018-03-01T00:22:33.597Z,1005.29
2018-03-01T00:23:33.560Z,1005.22
2018-03-01T00:24:34.061Z,1005.23
2018-03-01T00:25:33.510Z,1005.30
2018-03-01T00:26:33.536Z,1005.24
2018-03-01T00:27:33.465Z,1005.26
2018-03-01T00:28:33.471Z,1005.26
2018-03-01T00:29:33.434Z,1005.28
2018-03-01T00:30:33.389Z,1005.32
2018-03-01T00:31:33.357Z,1005.30
2018-03-01T00:32:33.410Z,1005.32
2018-03-01T00:33:33.340Z,1005.33
2018-03-01T00:34:33.283Z,1005.36
2018-03-01T00:35:33.267Z,1005.33
2018-03-01T00:36:33.266Z,1005.37
2018-03-01T00:37:33.218Z,1005.36
2018-03-01T00:38:33.200Z,1005.37
2018-03-01T00:39:33.176Z,1005.41
2018-03-01T00:40:33.203Z,1005.39
2018-03-01T00:41:33.129Z,1005.35
2018-03-01T00:42:33.092Z,1005.30
2018-03-01T00:43:33.074Z,1005.31
2018-03-01T00:44:33.056Z,1005.37
2018-03-01T00:45:33.055Z,1005.29
2018-03-01T00:46:33.004Z,1005.27
2018-03-01T00:47:32.986Z,1005.30
2018-03-01T00:48:32.951Z,1005.24
2018-03-01T00:49:32.927Z,1005.24
2018-03-01T00:50:32.909Z,1005.22
2018-03-01T00:51:32.896Z,1005.17
2018-03-01T00:52:33.129Z,1005.11
2018-03-01T00:53:32.838Z,1005.13
2018-03-01T00:54:32.818Z,1005.05
2018-03-01T00:55:32.779Z,1005.12
2018-03-01T00:56:32.766Z,1005.06
2018-03-01T00:57:32.768Z,1005.03
2018-03-01T00:58:32.720Z,1005.11
2018-03-01T00:59:32.692Z,1005.08
2018-03-01T01:00:32.664Z,1005.15
2018-03-01T01:01:32.777Z,1005.06
2018-03-01T01:02:32.620Z,1005.06
2018-03-01T01:03:32.627Z,1005.11
2018-03-01T01:04:32.565Z,1005.11
2018-03-01T01:05:32.563Z,1005.13
2018-03-01T01:06:32.519Z,1005.10
2018-03-01T01:07:32.502Z,1005.11
2018-03-01T01:08:33.061Z,1005.06
2018-03-01T01:09:32.444Z,1005.11
2018-03-01T01:10:32.421Z,1005.04
2018-03-01T01:11:32.407Z,1005.02
2018-03-01T01:12:32.381Z,1005.06
2018-03-01T01:13:32.359Z,1005.02
2018-03-01T01:14:32.375Z,1005.04
2018-03-01T01:15:32.315Z,1005.04
2018-03-01T01:16:32.271Z,1004.99
2018-03-01T01:17:32.258Z,1005.00
2018-03-01T01:18:32.238Z,1005.00
2018-03-01T01:19:32.241Z,1004.97
2018-03-01T01:20:32.186Z,1004.93
2018-03-01T01:21:32.159Z,1004.97
2018-03-01T01:22:32.171Z,1005.01
2018-03-01T01:23:32.107Z,1005.01
2018-03-01T01:24:34.408Z,1004.99
2018-03-01T01:25:32.091Z,1005.01
2018-03-01T01:26:32.052Z,1005.01
2018-03-01T01:27:32.027Z,1005.06
2018-03-01T01:28:32.008Z,1004.98
2018-03-01T01:29:31.984Z,1004.94
2018-03-01T01:30:31.957Z,1005.00
2018-03-01T01:31:31.928Z,1004.91
2018-03-01T01:32:31.911Z,1004.93
2018-03-01T01:33:31.873Z,1004.92
2018-03-01T01:34:31.857Z,1004.85
2018-03-01T01:35:31.859Z,1004.92
2018-03-01T01:36:31.814Z,1004.92
2018-03-01T01:37:31.774Z,1004.93
2018-03-01T01:38:31.754Z,1004.91
2018-03-01T01:39:31.730Z,1004.80
2018-03-01T01:40:32.565Z,1004.84
2018-03-01T01:41:31.679Z,1004.86
2018-03-01T01:42:31.654Z,1004.88
2018-03-01T01:43:31.637Z,1004.77
2018-03-01T01:44:31.608Z,1004.77
2018-03-01T01:45:31.595Z,1004.72
2018-03-01T01:46:31.622Z,1004.73
2018-03-01T01:47:31.544Z,1004.81
2018-03-01T01:48:31.514Z,1004.76
2018-03-01T01:49:31.498Z,1004.76
2018-03-01T01:50:32.057Z,1004.78
2018-03-01T01:51:31.484Z,1004.67
2018-03-01T01:52:31.427Z,1004.68
2018-03-01T01:53:31.392Z,1004.70
2018-03-01T01:54:31.375Z,1004.67
2018-03-01T01:55:31.351Z,1004.72
2018-03-01T01:56:31.361Z,1004.67
2018-03-01T01:57:32.058Z,1004.65
2018-03-01T01:58:31.281Z,1004.64
2018-03-01T01:59:31.342Z,1004.61
2018-03-01T02:00:31.239Z,1004.63
2018-03-01T02:01:31.256Z,1004.64
2018-03-01T02:02:31.193Z,1004.59
2018-03-01T02:03:31.166Z,1004.60
2018-03-01T02:04:32.061Z,1004.52
2018-03-01T02:05:31.115Z,1004.55
2018-03-01T02:06:31.095Z,1004.61
2018-03-01T02:07:31.127Z,1004.63
2018-03-01T02:08:31.045Z,1004.62
2018-03-01T02:09:31.007Z,1004.63
2018-03-01T02:10:31.009Z,1004.61
2018-03-01T02:11:30.971Z,1004.70
2018-03-01T02:12:30.955Z,1004.68
2018-03-01T02:13:30.969Z,1004.71
2018-03-01T02:14:30.985Z,1004.63
2018-03-01T02:15:30.874Z,1004.68
2018-03-01T02:16:30.856Z,1004.68
2018-03-01T02:17:30.858Z,1004.70
2018-03-01T02:18:30.803Z,1004.68
2018-03-01T02:19:30.823Z,1004.66
2018-03-01T02:20:30.766Z,1004.64
2018-03-01T02:21:30.739Z,1004.53
2018-03-01T02:22:30.724Z,1004.50
2018-03-01T02:23:30.748Z,1004.51
2018-03-01T02:24:30.712Z,1004.56
2018-03-01T02:25:30.651Z,1004.64
2018-03-01T02:26:30.671Z,1004.61
2018-03-01T02:27:30.587Z,1004.54
2018-03-01T02:28:30.563Z,1004.51
2018-03-01T02:29:30.548Z,1004.45
2018-03-01T02:30:30.509Z,1004.51
2018-03-01T02:31:30.496Z,1004.47
2018-03-01T02:32:30.460Z,1004.52
2018-03-01T02:33:30.448Z,1004.42
2018-03-01T02:34:30.473Z,1004.37
2018-03-01T02:35:30.407Z,1004.40
2018-03-01T02:36:30.391Z,1004.38
2018-03-01T02:37:31.054Z,1004.33
2018-03-01T02:38:30.343Z,1004.34
2018-03-01T02:39:30.302Z,1004.29
2018-03-01T02:40:30.337Z,1004.29
2018-03-01T02:41:30.257Z,1004.30
2018-03-01T02:42:30.237Z,1004.25
2018-03-01T02:43:30.206Z,1004.24
2018-03-01T02:44:30.196Z,1004.19
2018-03-01T02:45:30.169Z,1004.17
2018-03-01T02:46:30.169Z,1004.20
2018-03-01T02:47:30.132Z,1004.25
2018-03-01T02:48:30.093Z,1004.14
2018-03-01T02:49:30.102Z,1004.17
2018-03-01T02:50:30.072Z,1004.17
2018-03-01T02:51:30.028Z,1004.09
2018-03-01T02:52:30.067Z,1004.02
2018-03-01T02:53:29.981Z,1004.08
2018-03-01T02:54:29.942Z,1004.08
2018-03-01T02:55:29.920Z,1004.04
2018-03-01T02:56:29.917Z,1003.99
2018-03-01T02:57:29.903Z,1003.93
2018-03-01T02:58:29.858Z,1003.94
2018-03-01T02:59:29.824Z,1003.97
2018-03-01T03:00:29.801Z,1003.93
2018-03-01T03:01:29.776Z,1003.90
2018-03-01T03:02:29.806Z,1003.93
2018-03-01T03:03:29.732Z,1003.93
2018-03-01T03:04:29.700Z,1003.89
2018-03-01T03:05:29.677Z,1003.90
2018-03-01T03:06:29.649Z,1003.92
2018-03-01T03:07:29.638Z,1003.89
2018-03-01T03:08:29.653Z,1003.90
2018-03-01T03:09:29.591Z,1003.83
2018-03-01T03:10:29.561Z,1003.90
2018-03-01T03:11:29.551Z,1003.80
2018-03-01T03:12:29.509Z,1003.81
2018-03-01T03:13:29.493Z,1003.78
2018-03-01T03:14:29.500Z,1003.76
2018-03-01T03:15:29.468Z,1003.74
2018-03-01T03:16:29.423Z,1003.70
2018-03-01T03:17:29.389Z,1003.66
2018-03-01T03:18:29.415Z,1003.66
2018-03-01T03:19:29.347Z,1003.64
2018-03-01T03:20:29.322Z,1003.63
2018-03-01T03:21:29.334Z,1003.62
2018-03-01T03:22:29.277Z,1003.55
2018-03-01T03:23:29.251Z,1003.62
2018-03-01T03:24:29.244Z,1003.58
2018-03-01T03:25:29.202Z,1003.66
2018-03-01T03:26:29.182Z,1003.64
2018-03-01T03:27:29.160Z,1003.62
2018-03-01T03:28:29.135Z,1003.67
2018-03-01T03:29:29.107Z,1003.57
2018-03-01T03:30:29.083Z,1003.63
2018-03-01T03:31:29.082Z,1003.73
2018-03-01T03:32:29.030Z,1003.64
2018-03-01T03:33:29.015Z,1003.58
2018-03-01T03:34:28.984Z,1003.63
2018-03-01T03:35:28.964Z,1003.57
2018-03-01T03:36:28.967Z,1003.52
2018-03-01T03:37:28.953Z,1003.52
2018-03-01T03:38:28.884Z,1003.53
2018-03-01T03:39:28.863Z,1003.56
2018-03-01T03:40:28.874Z,1003.50
2018-03-01T03:41:28.885Z,1003.43
2018-03-01T03:42:28.852Z,1003.43
2018-03-01T03:43:28.770Z,1003.42
2018-03-01T03:44:28.776Z,1003.44
2018-03-01T03:45:28.716Z,1003.34
2018-03-01T03:46:28.701Z,1003.37
2018-03-01T03:47:28.677Z,1003.36
2018-03-01T03:48:28.653Z,1003.31
2018-03-01T03:49:28.631Z,1003.37
2018-03-01T03:50:28.600Z,1003.31
2018-03-01T03:51:28.580Z,1003.34
2018-03-01T03:52:28.558Z,1003.30
2018-03-01T03:53:28.566Z,1003.31
2018-03-01T03:54:28.511Z,1003.32
2018-03-01T03:55:28.482Z,1003.22
2018-03-01T03:56:28.458Z,1003.20
2018-03-01T03:57:28.438Z,1003.23
2018-03-01T03:58:28.421Z,1003.16
2018-03-01T03:59:28.385Z,1003.15
2018-03-01T04:00:28.415Z,1003.18
2018-03-01T04:01:28.331Z,1003.19
2018-03-01T04:02:28.306Z,1003.16
2018-03-01T04:03:28.290Z,1003.13
2018-03-01T04:04:28.259Z,1003.09
2018-03-01T04:05:28.244Z,1003.18
2018-03-01T04:06:28.234Z,1003.09
2018-03-01T04:07:28.210Z,1003.11
2018-03-01T04:08:28.172Z,1003.08
2018-03-01T04:09:28.146Z,1003.04
2018-03-01T04:10:28.120Z,1003.04
2018-03-01T04:11:28.139Z,1003.07
2018-03-01T04:12:28.076Z,1002.96
2018-03-01T04:13:28.048Z,1002.96
2018-03-01T04:14:28.032Z,1002.97
2018-03-01T04:15:28.010Z,1002.96
2018-03-01T04:16:27.983Z,1002.91
2018-03-01T04:17:27.962Z,1002.92
2018-03-01T04:18:27.983Z,1002.93
2018-03-01T04:19:27.914Z,1002.92
2018-03-01T04:20:27.885Z,1002.87
2018-03-01T04:21:27.857Z,1002.88
2018-03-01T04:22:27.827Z,1002.90
2018-03-01T04:23:27.848Z,1002.88
2018-03-01T04:24:27.841Z,1002.93
2018-03-01T04:25:27.759Z,1002.87
2018-03-01T04:26:27.737Z,1002.87
2018-03-01T04:27:27.711Z,1002.90
2018-03-01T04:28:27.702Z,1002.81
2018-03-01T04:29:27.658Z,1002.84
2018-03-01T04:30:27.656Z,1002.82
2018-03-01T04:31:27.625Z,1002.79
2018-03-01T04:32:27.608Z,1002.80
2018-03-01T04:33:27.610Z,1002.77
2018-03-01T04:34:27.548Z,1002.80
2018-03-01T04:35:27.582Z,1002.75
2018-03-01T04:36:27.500Z,1002.76
2018-03-01T04:37:27.472Z,1002.77
2018-03-01T04:38:27.454Z,1002.80
2018-03-01T04:39:27.432Z,1002.79
2018-03-01T04:40:27.416Z,1002.75
2018-03-01T04:41:27.445Z,1002.73
2018-03-01T04:42:27.353Z,1002.71
2018-03-01T04:43:27.328Z,1002.72
2018-03-01T04:44:27.307Z,1002.74
2018-03-01T04:45:27.286Z,1002.77
2018-03-01T04:46:27.256Z,1002.79
2018-03-01T04:47:27.246Z,1002.77
2018-03-01T04:48:27.209Z,1002.77
2018-03-01T04:49:27.181Z,1002.76
2018-03-01T04:50:27.175Z,1002.70
2018-03-01T04:51:27.134Z,1002.74
2018-03-01T04:52:27.148Z,1002.71
2018-03-01T04:53:27.091Z,1002.69
2018-03-01T04:54:27.076Z,1002.70
2018-03-01T04:55:27.057Z,1002.65
2018-03-01T04:56:27.014Z,1002.76
2018-03-01T04:57:26.994Z,1002.72
2018-03-01T04:58:27.017Z,1002.68
2018-03-01T04:59:26.949Z,1002.68
2018-03-01T05:00:26.920Z,1002.70
2018-03-01T05:01:26.901Z,1002.66
2018-03-01T05:02:26.867Z,1002.62
2018-03-01T05:03:26.851Z,1002.72
2018-03-01T05:04:27.003Z,1002.59
2018-03-01T05:05:26.808Z,1002.65
2018-03-01T05:06:26.776Z,1002.63
2018-03-01T05:07:26.750Z,1002.63
2018-03-01T05:08:26.735Z,1002.61
2018-03-01T05:09:26.734Z,1002.60
2018-03-01T05:10:26.685Z,1002.62
2018-03-01T05:11:26.696Z,1002.56
2018-03-01T05:12:26.636Z,1002.59
2018-03-01T05:13:26.610Z,1002.44
2018-03-01T05:14:26.595Z,1002.46
2018-03-01T05:15:26.560Z,1002.45
2018-03-01T05:16:26.600Z,1002.39
2018-03-01T05:17:26.506Z,1002.41
2018-03-01T05:18:26.504Z,1002.42
2018-03-01T05:19:26.471Z,1002.43
2018-03-01T05:20:26.441Z,1002.52
2018-03-01T05:21:26.428Z,1002.54
2018-03-01T05:22:26.406Z,1002.57
2018-03-01T05:23:26.366Z,1002.58
2018-03-01T05:24:26.343Z,1002.59
2018-03-01T05:25:26.317Z,1002.64
2018-03-01T05:26:26.292Z,1002.67
2018-03-01T05:27:26.301Z,1002.63
2018-03-01T05:28:26.288Z,1002.61
2018-03-01T05:29:26.222Z,1002.55
2018-03-01T05:30:26.208Z,1002.54
2018-03-01T05:31:26.187Z,1002.46
2018-03-01T05:32:26.154Z,1002.39
2018-03-01T05:33:26.193Z,1002.37
2018-03-01T05:34:26.109Z,1002.40
2018-03-01T05:35:26.085Z,1002.42
2018-03-01T05:36:26.067Z,1002.46
2018-03-01T05:37:26.043Z,1002.39
2018-03-01T05:38:26.006Z,1002.48
2018-03-01T05:39:25.982Z,1002.46
2018-03-01T05:40:26.024Z,1002.49
2018-03-01T05:41:25.930Z,1002.47
2018-03-01T05:42:25.919Z,1002.47
2018-03-01T05:43:25.896Z,1002.49
2018-03-01T05:44:25.867Z,1002.49
2018-03-01T05:45:25.845Z,1002.54
2018-03-01T05:46:25.841Z,1002.58
2018-03-01T05:47:25.793Z,1002.53
2018-03-01T05:48:25.763Z,1002.61
2018-03-01T05:49:25.756Z,1002.61
2018-03-01T05:50:25.718Z,1002.59
2018-03-01T05:51:25.697Z,1002.61
2018-03-01T05:52:25.669Z,1002.58
2018-03-01T05:53:25.644Z,1002.63
2018-03-01T05:54:25.627Z,1002.60
2018-03-01T05:55:25.591Z,1002.64
2018-03-01T05:56:25.570Z,1002.64
2018-03-01T05:57:25.561Z,1002.64
2018-03-01T05:58:25.529Z,1002.61
2018-03-01T05:59:25.512Z,1002.57
2018-03-01T06:00:25.508Z,1002.58
2018-03-01T06:01:25.452Z,1002.54
2018-03-01T06:02:25.430Z,1002.60
2018-03-01T06:03:25.405Z,1002.58
2018-03-01T06:04:25.379Z,1002.59
2018-03-01T06:05:25.396Z,1002.59
2018-03-01T06:06:25.335Z,1002.59
2018-03-01T06:07:25.371Z,1002.60
2018-03-01T06:08:25.295Z,1002.61
2018-03-01T06:09:25.265Z,1002.57
2018-03-01T06:10:25.232Z,1002.57
2018-03-01T06:11:25.204Z,1002.56
2018-03-01T06:12:25.199Z,1002.47
2018-03-01T06:13:25.192Z,1002.52
2018-03-01T06:14:25.147Z,1002.48
2018-03-01T06:15:25.179Z,1002.57
2018-03-01T06:16:25.097Z,1002.58
2018-03-01T06:17:25.064Z,1002.63
2018-03-01T06:18:25.047Z,1002.65
2018-03-01T06:19:25.027Z,1002.68
2018-03-01T06:20:25.000Z,1002.74
2018-03-01T06:21:24.982Z,1002.75
2018-03-01T06:22:24.942Z,1002.72
2018-03-01T06:23:24.926Z,1002.67
2018-03-01T06:24:24.893Z,1002.62
2018-03-01T06:25:24.871Z,1002.59
2018-03-01T06:26:24.880Z,1002.56
2018-03-01T06:27:24.830Z,1002.53
2018-03-01T06:28:24.808Z,1002.48
2018-03-01T06:29:24.841Z,1002.45
2018-03-01T06:30:24.756Z,1002.41
2018-03-01T06:31:24.729Z,1002.41
2018-03-01T06:32:24.699Z,1002.39
2018-03-01T06:33:24.678Z,1002.33
2018-03-01T06:34:24.660Z,1002.43
2018-03-01T06:35:24.696Z,1002.38
2018-03-01T06:36:24.623Z,1002.30
2018-03-01T06:37:24.581Z,1002.27
2018-03-01T06:38:24.556Z,1002.31
2018-03-01T06:39:24.541Z,1002.25
2018-03-01T06:40:24.517Z,1002.22
2018-03-01T06:41:24.502Z,1002.25
2018-03-01T06:42:24.470Z,1002.28
2018-03-01T06:43:24.434Z,1002.20
2018-03-01T06:44:24.422Z,1002.19
2018-03-01T06:45:24.393Z,1002.16
2018-03-01T06:46:24.405Z,1002.17
2018-03-01T06:47:24.347Z,1002.19
2018-03-01T06:48:24.323Z,1002.21
2018-03-01T06:49:24.297Z,1002.20
2018-03-01T06:50:24.284Z,1002.24
2018-03-01T06:51:24.305Z,1002.11
2018-03-01T06:52:24.216Z,1002.16
2018-03-01T06:53:24.206Z,1002.15
2018-03-01T06:54:24.177Z,1002.15
2018-03-01T06:55:24.153Z,1002.08
2018-03-01T06:56:24.131Z,1002.20
2018-03-01T06:57:24.134Z,1002.23
2018-03-01T06:58:24.092Z,1002.23
2018-03-01T06:59:24.055Z,1002.27
2018-03-01T07:00:24.042Z,1002.17
2018-03-01T07:01:24.021Z,1002.31
2018-03-01T07:02:24.040Z,1002.31
2018-03-01T07:03:23.959Z,1002.28
2018-03-01T07:04:23.943Z,1002.34
2018-03-01T07:05:23.919Z,1002.21
2018-03-01T07:06:23.890Z,1002.25
2018-03-01T07:07:23.871Z,1002.32
2018-03-01T07:08:23.849Z,1002.31
2018-03-01T07:09:23.821Z,1002.26
2018-03-01T07:10:23.787Z,1002.25
2018-03-01T07:11:23.768Z,1002.26
2018-03-01T07:12:23.753Z,1002.27
2018-03-01T07:13:23.756Z,1002.23
2018-03-01T07:14:23.701Z,1002.23
2018-03-01T07:15:23.677Z,1002.33
2018-03-01T07:16:23.655Z,1002.20
2018-03-01T07:17:23.628Z,1002.17
2018-03-01T07:18:23.635Z,1002.15
2018-03-01T07:19:23.580Z,1002.08
2018-03-01T07:20:23.560Z,1002.04
2018-03-01T07:21:23.527Z,1002.10
2018-03-01T07:22:23.508Z,1002.04
2018-03-01T07:23:23.515Z,1001.97
2018-03-01T07:24:23.469Z,1001.96
2018-03-01T07:25:23.431Z,1002.01
2018-03-01T07:26:23.415Z,1001.96
2018-03-01T07:27:23.385Z,1002.05
2018-03-01T07:28:23.418Z,1002.02
2018-03-01T07:29:23.339Z,1002.01
2018-03-01T07:30:23.321Z,1001.99
2018-03-01T07:31:23.291Z,1002.05
2018-03-01T07:32:23.273Z,1002.01
2018-03-01T07:33:23.258Z,1002.04
2018-03-01T07:34:23.301Z,1002.02
2018-03-01T07:35:23.198Z,1002.06
2018-03-01T07:36:23.184Z,1002.01
2018-03-01T07:37:23.159Z,1002.12
2018-03-01T07:38:23.132Z,1002.10
2018-03-01T07:39:23.109Z,1002.10
2018-03-01T07:40:23.095Z,1002.11
2018-03-01T07:41:23.057Z,1002.08
2018-03-01T07:42:23.040Z,1002.06
2018-03-01T07:43:23.048Z,1002.05
2018-03-01T07:44:22.987Z,1002.10
2018-03-01T07:45:22.969Z,1002.10
2018-03-01T07:46:22.945Z,1002.15
2018-03-01T07:47:22.929Z,1002.17
2018-03-01T07:48:22.896Z,1002.16
2018-03-01T07:49:22.904Z,1002.14
2018-03-01T07:50:22.838Z,1002.15
2018-03-01T07:51:22.867Z,1002.15
2018-03-01T07:52:22.817Z,1002.19
2018-03-01T07:53:22.791Z,1002.16
2018-03-01T07:54:22.761Z,1002.22
2018-03-01T07:55:22.729Z,1002.17
2018-03-01T07:56:22.758Z,1002.18
2018-03-01T07:57:22.688Z,1002.14
2018-03-01T07:58:22.660Z,1002.17
2018-03-01T07:59:22.642Z,1002.12
2018-03-01T08:00:22.618Z,1002.07
2018-03-01T08:01:23.370Z,1002.12
2018-03-01T08:02:23.260Z,1002.06
2018-03-01T08:03:23.320Z,1001.96
2018-03-01T08:04:23.002Z,1001.87
2018-03-01T08:05:23.316Z,1001.97
2018-03-01T08:06:22.472Z,1001.83
2018-03-01T08:07:22.448Z,1001.86
2018-03-01T08:08:22.421Z,1001.75
2018-03-01T08:09:22.431Z,1001.81
2018-03-01T08:10:22.434Z,1001.81
2018-03-01T08:11:22.349Z,1001.82
2018-03-01T08:12:22.337Z,1001.83
2018-03-01T08:13:22.310Z,1001.82
2018-03-01T08:14:22.300Z,1001.74
2018-03-01T08:15:22.274Z,1001.80
2018-03-01T08:16:22.298Z,1001.75
2018-03-01T08:17:22.222Z,1001.80
2018-03-01T08:18:22.198Z,1001.67
2018-03-01T08:19:22.826Z,1001.71
2018-03-01T08:20:22.949Z,1001.65
2018-03-01T08:21:22.151Z,1001.65
2018-03-01T08:22:22.182Z,1001.68
2018-03-01T08:23:22.571Z,1001.69
2018-03-01T08:24:22.064Z,1001.63
2018-03-01T08:25:22.050Z,1001.64
2018-03-01T08:26:22.010Z,1001.61
2018-03-01T08:27:22.009Z,1001.62
2018-03-01T08:28:21.959Z,1001.70
2018-03-01T08:29:21.940Z,1001.66
2018-03-01T08:30:21.911Z,1001.64
2018-03-01T08:31:21.926Z,1001.67
2018-03-01T08:32:21.887Z,1001.62
2018-03-01T08:33:21.886Z,1001.62
2018-03-01T08:34:21.828Z,1001.64
2018-03-01T08:35:21.833Z,1001.69
2018-03-01T08:36:21.775Z,1001.66
2018-03-01T08:37:21.753Z,1001.70
2018-03-01T08:38:21.763Z,1001.69
2018-03-01T08:39:21.716Z,1001.66
2018-03-01T08:40:21.687Z,1001.65
2018-03-01T08:41:21.683Z,1001.54
2018-03-01T08:42:21.632Z,1001.64
2018-03-01T08:43:21.657Z,1001.56
2018-03-01T08:44:21.608Z,1001.55
2018-03-01T08:45:21.567Z,1001.56
2018-03-01T08:46:21.595Z,1001.53
2018-03-01T08:47:21.531Z,1001.47
2018-03-01T08:48:21.501Z,1001.48
2018-03-01T08:49:21.473Z,1001.43
2018-03-01T08:50:21.630Z,1001.36
2018-03-01T08:51:21.434Z,1001.40
2018-03-01T08:52:21.416Z,1001.34
2018-03-01T08:53:21.395Z,1001.33
2018-03-01T08:54:21.365Z,1001.30
2018-03-01T08:55:21.427Z,1001.32
2018-03-01T08:56:21.320Z,1001.24
2018-03-01T08:57:21.302Z,1001.25
2018-03-01T08:58:21.285Z,1001.24
2018-03-01T08:59:21.250Z,1001.26
2018-03-01T09:00:21.233Z,1001.28
2018-03-01T09:01:21.257Z,1001.24
2018-03-01T09:02:21.195Z,1001.29
2018-03-01T09:03:21.167Z,1001.19
2018-03-01T09:04:21.148Z,1001.21
2018-03-01T09:05:21.185Z,1001.16
2018-03-01T09:06:21.094Z,1001.17
2018-03-01T09:07:21.068Z,1001.21
2018-03-01T09:08:21.062Z,1001.15
2018-03-01T09:09:21.032Z,1001.26
2018-03-01T09:10:21.010Z,1001.24
2018-03-01T09:11:21.033Z,1001.14
2018-03-01T09:12:20.966Z,1001.17
2018-03-01T09:13:20.945Z,1001.27
2018-03-01T09:14:20.922Z,1001.25
2018-03-01T09:15:20.893Z,1001.30
2018-03-01T09:16:20.884Z,1001.23
2018-03-01T09:17:20.857Z,1001.34
2018-03-01T09:18:20.829Z,1001.36
2018-03-01T09:19:21.544Z,1001.37
2018-03-01T09:20:20.799Z,1001.36
2018-03-01T09:21:20.765Z,1001.38
2018-03-01T09:22:20.770Z,1001.39
2018-03-01T09:23:20.717Z,1001.35
2018-03-01T09:24:20.708Z,1001.28
2018-03-01T09:25:20.691Z,1001.32
2018-03-01T09:26:20.673Z,1001.27
2018-03-01T09:27:20.634Z,1001.32
2018-03-01T09:28:20.625Z,1001.30
2018-03-01T09:29:20.602Z,1001.26
2018-03-01T09:30:20.570Z,1001.24
2018-03-01T09:31:20.593Z,1001.17
2018-03-01T09:32:20.538Z,1001.21
2018-03-01T09:33:20.512Z,1001.21
2018-03-01T09:34:20.494Z,1001.17
2018-03-01T09:35:20.478Z,1001.27
2018-03-01T09:36:20.448Z,1001.15
2018-03-01T09:37:20.435Z,1001.09
2018-03-01T09:38:20.408Z,1001.15
2018-03-01T09:39:20.386Z,1001.05
2018-03-01T09:40:20.364Z,1001.11
2018-03-01T09:41:20.405Z,1001.08
2018-03-01T09:42:20.721Z,1001.11
2018-03-01T09:43:20.302Z,1001.15
2018-03-01T09:44:20.282Z,1001.18
2018-03-01T09:45:20.259Z,1001.16
2018-03-01T09:46:20.243Z,1001.13
2018-03-01T09:47:20.266Z,1001.15
2018-03-01T09:48:20.203Z,1001.12
2018-03-01T09:49:20.191Z,1001.12
2018-03-01T09:50:20.160Z,1001.12
2018-03-01T09:51:20.143Z,1001.07
2018-03-01T09:52:20.122Z,1001.11
2018-03-01T09:53:20.089Z,1001.05
2018-03-01T09:54:20.070Z,1001.09
2018-03-01T09:55:20.052Z,1001.03
2018-03-01T09:56:20.035Z,1000.93
2018-03-01T09:57:20.003Z,1000.95
2018-03-01T09:58:20.043Z,1000.90
2018-03-01T09:59:19.973Z,1000.85
2018-03-01T10:00:19.944Z,1000.87
2018-03-01T10:01:19.926Z,1000.87
2018-03-01T10:02:19.900Z,1000.84
2018-03-01T10:03:19.896Z,1000.81
2018-03-01T10:04:19.894Z,1000.86
2018-03-01T10:05:19.839Z,1000.72
2018-03-01T10:06:19.830Z,1000.92
2018-03-01T10:07:19.799Z,1000.79
2018-03-01T10:08:19.779Z,1000.85
2018-03-01T10:09:19.772Z,1000.84
2018-03-01T10:10:19.782Z,1000.82
2018-03-01T10:11:19.724Z,1000.81
2018-03-01T10:12:19.700Z,1000.77
2018-03-01T10:13:19.673Z,1000.75
2018-03-01T10:14:19.653Z,1000.74
2018-03-01T10:15:19.631Z,1000.72
2018-03-01T10:16:19.668Z,1000.72
2018-03-01T10:17:19.593Z,1000.74
2018-03-01T10:18:19.565Z,1000.75
2018-03-01T10:19:19.542Z,1000.80
2018-03-01T10:20:19.536Z,1000.75
2018-03-01T10:21:19.512Z,1000.68
2018-03-01T10:22:19.520Z,1000.76
2018-03-01T10:23:19.465Z,1000.75
2018-03-01T10:24:19.444Z,1000.67
2018-03-01T10:25:19.436Z,1000.63
2018-03-01T10:26:19.396Z,1000.60
2018-03-01T10:27:19.387Z,1000.66
2018-03-01T10:28:19.384Z,1000.68
2018-03-01T10:29:19.339Z,1000.62
2018-03-01T10:30:19.329Z,1000.69
2018-03-01T10:31:19.332Z,1000.68
2018-03-01T10:32:19.279Z,1000.71
2018-03-01T10:33:19.257Z,1000.75
2018-03-01T10:34:19.245Z,1000.68
2018-03-01T10:35:19.215Z,1000.61
2018-03-01T10:36:19.191Z,1000.63
2018-03-01T10:37:19.187Z,1000.59
2018-03-01T10:38:19.169Z,1000.63
2018-03-01T10:39:19.141Z,1000.59
2018-03-01T10:40:19.197Z,1000.46
2018-03-01T10:41:19.102Z,1000.47
2018-03-01T10:42:19.124Z,1000.50
2018-03-01T10:43:19.209Z,1000.37
2018-03-01T10:44:19.047Z,1000.42
2018-03-01T10:45:19.013Z,1000.42
2018-03-01T10:46:19.009Z,1000.40
2018-03-01T10:47:20.208Z,1000.40
2018-03-01T10:48:19.498Z,1000.31
2018-03-01T10:49:19.765Z,1000.36
2018-03-01T10:50:19.533Z,1000.44
2018-03-01T10:51:18.905Z,1000.35
2018-03-01T10:52:18.902Z,1000.27
2018-03-01T10:53:18.882Z,1000.23
2018-03-01T10:54:18.854Z,1000.21
2018-03-01T10:55:18.836Z,1000.16
2018-03-01T10:56:18.821Z,1000.15
2018-03-01T10:57:18.796Z,1000.08
2018-03-01T10:58:18.836Z,1000.12
2018-03-01T10:59:18.752Z,1000.10
2018-03-01T11:00:18.747Z,1000.19
2018-03-01T11:01:18.723Z,1000.06
2018-03-01T11:02:18.700Z,1000.13
2018-03-01T11:03:18.685Z,1000.13
2018-03-01T11:04:18.721Z,1000.11
2018-03-01T11:05:18.644Z,1000.08
2018-03-01T11:06:18.635Z,1000.02
2018-03-01T11:07:18.612Z,1000.05
2018-03-01T11:08:18.589Z,1000.04
2018-03-01T11:09:18.576Z,1000.04
2018-03-01T11:10:18.554Z,1000.09
2018-03-01T11:11:18.564Z,1000.10
2018-03-01T11:12:18.511Z,999.95
2018-03-01T11:13:18.498Z,1000.00
2018-03-01T11:14:18.484Z,999.99
2018-03-01T11:15:18.524Z,999.99
2018-03-01T11:16:18.432Z,999.94
2018-03-01T11:17:18.420Z,999.85
2018-03-01T11:18:18.405Z,999.79
2018-03-01T11:19:18.369Z,999.82
2018-03-01T11:20:18.360Z,999.75
2018-03-01T11:21:18.376Z,999.71
2018-03-01T11:22:18.315Z,999.75
2018-03-01T11:23:18.333Z,999.70
2018-03-01T11:24:18.292Z,999.81
2018-03-01T11:25:18.282Z,999.63
2018-03-01T11:26:18.308Z,999.57
2018-03-01T11:27:18.238Z,999.53
2018-03-01T11:28:18.206Z,999.58
2018-03-01T11:29:18.194Z,999.51
2018-03-01T11:30:18.181Z,999.55
2018-03-01T11:31:18.166Z,999.44
2018-03-01T11:32:18.145Z,999.51
2018-03-01T11:33:18.125Z,999.55
2018-03-01T11:34:18.149Z,999.59
2018-03-01T11:35:18.106Z,999.62
2018-03-01T11:36:18.065Z,999.59
2018-03-01T11:37:18.071Z,999.58
2018-03-01T11:38:18.037Z,999.55
2018-03-01T11:39:18.017Z,999.57
2018-03-01T11:40:17.999Z,999.50
2018-03-01T11:41:17.987Z,999.49
2018-03-01T11:42:17.969Z,999.52
2018-03-01T11:43:17.960Z,999.39
2018-03-01T11:44:17.944Z,999.22
2018-03-01T11:45:17.923Z,999.39
2018-03-01T11:46:17.924Z,999.39
2018-03-01T11:47:17.885Z,999.42
2018-03-01T11:48:17.868Z,999.45
2018-03-01T11:49:17.854Z,999.35
2018-03-01T11:50:17.845Z,999.32
2018-03-01T11:51:17.866Z,999.31
2018-03-01T11:52:17.800Z,999.25
2018-03-01T11:53:17.786Z,999.24
2018-03-01T11:54:17.764Z,999.28
2018-03-01T11:55:17.738Z,999.26
2018-03-01T11:56:17.734Z,999.23
2018-03-01T11:57:17.733Z,999.27
2018-03-01T11:58:17.696Z,999.20
2018-03-01T11:59:17.683Z,999.27
2018-03-01T12:00:17.655Z,999.35
2018-03-01T12:01:17.646Z,999.30
2018-03-01T12:02:17.636Z,999.19
2018-03-01T12:03:17.606Z,999.19
2018-03-01T12:04:17.591Z,999.23
2018-03-01T12:05:17.577Z,999.31
2018-03-01T12:06:17.567Z,999.20
2018-03-01T12:07:17.586Z,999.28